sensor_id;sensor_type;location;lat;lon;timestamp;P1;durP1;ratioP1;P2;durP2;ratioP2
44214;SDS011;29884;47.450;19.124;2023-06-26T00:00:34;3.15;;;2.45;;
44214;SDS011;29884;47.450;19.124;2023-06-26T00:02:59;3.35;;;1.85;;
44214;SDS011;29884;47.450;19.124;2023-06-26T00:05:25;4.38;;;2.40;;
44214;SDS011;29884;47.450;19.124;2023-06-26T00:07:52;3.80;;;2.00;;
44214;SDS011;29884;47.450;19.124;2023-06-26T00:10:18;4.03;;;2.60;;
44214;SDS011;29884;47.450;19.124;2023-06-26T00:12:44;3.25;;;2.30;;
44214;SDS011;29884;47.450;19.124;2023-06-26T00:15:10;3.63;;;2.92;;
44214;SDS011;29884;47.450;19.124;2023-06-26T00:17:37;5.60;;;2.38;;
44214;SDS011;29884;47.450;19.124;2023-06-26T00:20:03;3.03;;;2.42;;
44214;SDS011;29884;47.450;19.124;2023-06-26T00:22:30;4.90;;;2.50;;
44214;SDS011;29884;47.450;19.124;2023-06-26T00:24:56;3.95;;;2.92;;
44214;SDS011;29884;47.450;19.124;2023-06-26T00:27:21;5.10;;;2.90;;
44214;SDS011;29884;47.450;19.124;2023-06-26T00:29:48;3.38;;;2.70;;
44214;SDS011;29884;47.450;19.124;2023-06-26T00:32:13;3.50;;;2.50;;
44214;SDS011;29884;47.450;19.124;2023-06-26T00:34:39;6.57;;;2.97;;
44214;SDS011;29884;47.450;19.124;2023-06-26T00:37:05;4.68;;;2.42;;
44214;SDS011;29884;47.450;19.124;2023-06-26T00:39:30;3.17;;;2.30;;
44214;SDS011;29884;47.450;19.124;2023-06-26T00:41:56;3.45;;;3.00;;
44214;SDS011;29884;47.450;19.124;2023-06-26T00:44:22;3.58;;;2.60;;
44214;SDS011;29884;47.450;19.124;2023-06-26T00:46:48;3.40;;;2.47;;
44214;SDS011;29884;47.450;19.124;2023-06-26T00:49:13;4.55;;;2.78;;
44214;SDS011;29884;47.450;19.124;2023-06-26T00:51:39;3.67;;;2.80;;
44214;SDS011;29884;47.450;19.124;2023-06-26T00:54:06;4.25;;;3.17;;
44214;SDS011;29884;47.450;19.124;2023-06-26T00:56:32;3.72;;;3.00;;
44214;SDS011;29884;47.450;19.124;2023-06-26T00:58:58;3.70;;;2.92;;
44214;SDS011;29884;47.450;19.124;2023-06-26T01:01:24;4.53;;;2.95;;
44214;SDS011;29884;47.450;19.124;2023-06-26T01:03:50;4.93;;;3.45;;
44214;SDS011;29884;47.450;19.124;2023-06-26T01:06:18;4.22;;;3.08;;
44214;SDS011;29884;47.450;19.124;2023-06-26T01:08:45;4.97;;;3.10;;
44214;SDS011;29884;47.450;19.124;2023-06-26T01:11:12;5.80;;;3.50;;
44214;SDS011;29884;47.450;19.124;2023-06-26T01:13:38;4.88;;;3.40;;
44214;SDS011;29884;47.450;19.124;2023-06-26T01:16:06;6.03;;;3.55;;
44214;SDS011;29884;47.450;19.124;2023-06-26T01:18:32;3.85;;;3.03;;
44214;SDS011;29884;47.450;19.124;2023-06-26T01:20:59;5.75;;;3.30;;
44214;SDS011;29884;47.450;19.124;2023-06-26T01:23:31;5.80;;;3.40;;
44214;SDS011;29884;47.450;19.124;2023-06-26T01:28:47;4.55;;;3.28;;
44214;SDS011;29884;47.450;19.124;2023-06-26T01:31:15;4.72;;;3.65;;
44214;SDS011;29884;47.450;19.124;2023-06-26T01:33:41;8.52;;;4.13;;
44214;SDS011;29884;47.450;19.124;2023-06-26T01:36:08;4.72;;;3.53;;
44214;SDS011;29884;47.450;19.124;2023-06-26T01:38:35;4.40;;;3.65;;
44214;SDS011;29884;47.450;19.124;2023-06-26T01:41:00;5.20;;;3.67;;
44214;SDS011;29884;47.450;19.124;2023-06-26T01:46:02;4.85;;;4.22;;
44214;SDS011;29884;47.450;19.124;2023-06-26T01:48:44;5.78;;;3.60;;
44214;SDS011;29884;47.450;19.124;2023-06-26T01:51:27;3.75;;;3.05;;
44214;SDS011;29884;47.450;19.124;2023-06-26T01:54:07;4.30;;;3.42;;
44214;SDS011;29884;47.450;19.124;2023-06-26T01:56:35;4.63;;;3.47;;
44214;SDS011;29884;47.450;19.124;2023-06-26T01:59:03;6.90;;;3.28;;
44214;SDS011;29884;47.450;19.124;2023-06-26T02:01:31;4.82;;;3.33;;
44214;SDS011;29884;47.450;19.124;2023-06-26T02:03:58;6.75;;;3.00;;
44214;SDS011;29884;47.450;19.124;2023-06-26T02:06:24;3.65;;;3.10;;
44214;SDS011;29884;47.450;19.124;2023-06-26T02:08:50;5.60;;;3.30;;
44214;SDS011;29884;47.450;19.124;2023-06-26T02:11:16;5.57;;;2.72;;
44214;SDS011;29884;47.450;19.124;2023-06-26T02:13:41;5.68;;;3.25;;
44214;SDS011;29884;47.450;19.124;2023-06-26T02:16:07;4.63;;;2.88;;
44214;SDS011;29884;47.450;19.124;2023-06-26T02:18:33;4.18;;;3.10;;
44214;SDS011;29884;47.450;19.124;2023-06-26T02:20:58;3.67;;;3.00;;
44214;SDS011;29884;47.450;19.124;2023-06-26T02:23:25;3.42;;;2.95;;
44214;SDS011;29884;47.450;19.124;2023-06-26T02:25:50;4.55;;;2.95;;
44214;SDS011;29884;47.450;19.124;2023-06-26T02:28:16;6.93;;;3.22;;
44214;SDS011;29884;47.450;19.124;2023-06-26T02:30:42;5.60;;;3.35;;
44214;SDS011;29884;47.450;19.124;2023-06-26T02:33:07;5.47;;;3.45;;
44214;SDS011;29884;47.450;19.124;2023-06-26T02:35:33;4.38;;;3.13;;
44214;SDS011;29884;47.450;19.124;2023-06-26T02:37:59;5.18;;;2.80;;
44214;SDS011;29884;47.450;19.124;2023-06-26T02:40:24;5.32;;;3.67;;
44214;SDS011;29884;47.450;19.124;2023-06-26T02:42:50;5.30;;;3.50;;
44214;SDS011;29884;47.450;19.124;2023-06-26T02:45:16;5.18;;;3.60;;
44214;SDS011;29884;47.450;19.124;2023-06-26T02:47:41;3.63;;;3.10;;
44214;SDS011;29884;47.450;19.124;2023-06-26T02:50:07;4.45;;;3.22;;
44214;SDS011;29884;47.450;19.124;2023-06-26T02:52:33;5.88;;;3.55;;
44214;SDS011;29884;47.450;19.124;2023-06-26T02:54:59;3.30;;;2.63;;
44214;SDS011;29884;47.450;19.124;2023-06-26T02:57:25;4.22;;;3.08;;
44214;SDS011;29884;47.450;19.124;2023-06-26T02:59:50;4.55;;;3.65;;
44214;SDS011;29884;47.450;19.124;2023-06-26T03:02:16;4.82;;;3.45;;
44214;SDS011;29884;47.450;19.124;2023-06-26T03:04:42;4.93;;;3.20;;
44214;SDS011;29884;47.450;19.124;2023-06-26T03:07:08;6.57;;;3.30;;
44214;SDS011;29884;47.450;19.124;2023-06-26T03:09:34;4.88;;;3.67;;
44214;SDS011;29884;47.450;19.124;2023-06-26T03:12:00;6.40;;;3.45;;
44214;SDS011;29884;47.450;19.124;2023-06-26T03:14:25;4.00;;;3.30;;
44214;SDS011;29884;47.450;19.124;2023-06-26T03:16:55;3.67;;;3.25;;
44214;SDS011;29884;47.450;19.124;2023-06-26T03:19:23;5.10;;;3.20;;
44214;SDS011;29884;47.450;19.124;2023-06-26T03:21:48;6.15;;;3.50;;
44214;SDS011;29884;47.450;19.124;2023-06-26T03:24:14;4.07;;;3.20;;
44214;SDS011;29884;47.450;19.124;2023-06-26T03:26:40;4.53;;;3.00;;
44214;SDS011;29884;47.450;19.124;2023-06-26T03:29:05;4.18;;;3.78;;
44214;SDS011;29884;47.450;19.124;2023-06-26T03:31:31;5.28;;;3.22;;
44214;SDS011;29884;47.450;19.124;2023-06-26T03:33:57;4.13;;;3.53;;
44214;SDS011;29884;47.450;19.124;2023-06-26T03:36:22;4.65;;;3.28;;
44214;SDS011;29884;47.450;19.124;2023-06-26T03:38:48;5.90;;;3.28;;
44214;SDS011;29884;47.450;19.124;2023-06-26T03:41:14;5.72;;;3.58;;
44214;SDS011;29884;47.450;19.124;2023-06-26T03:43:40;8.60;;;3.95;;
44214;SDS011;29884;47.450;19.124;2023-06-26T03:46:05;9.32;;;4.07;;
44214;SDS011;29884;47.450;19.124;2023-06-26T03:48:31;10.70;;;4.15;;
44214;SDS011;29884;47.450;19.124;2023-06-26T03:50:56;7.28;;;3.50;;
44214;SDS011;29884;47.450;19.124;2023-06-26T03:53:22;5.10;;;3.38;;
44214;SDS011;29884;47.450;19.124;2023-06-26T03:55:49;4.57;;;3.38;;
44214;SDS011;29884;47.450;19.124;2023-06-26T03:58:15;4.30;;;3.47;;
44214;SDS011;29884;47.450;19.124;2023-06-26T04:00:40;4.03;;;3.47;;
44214;SDS011;29884;47.450;19.124;2023-06-26T04:03:06;5.10;;;3.25;;
44214;SDS011;29884;47.450;19.124;2023-06-26T04:05:32;4.95;;;3.65;;
44214;SDS011;29884;47.450;19.124;2023-06-26T04:07:57;4.30;;;3.67;;
44214;SDS011;29884;47.450;19.124;2023-06-26T04:10:23;4.57;;;3.63;;
44214;SDS011;29884;47.450;19.124;2023-06-26T04:12:49;6.95;;;3.55;;
44214;SDS011;29884;47.450;19.124;2023-06-26T04:15:14;8.05;;;4.05;;
44214;SDS011;29884;47.450;19.124;2023-06-26T04:17:40;6.43;;;3.60;;
44214;SDS011;29884;47.450;19.124;2023-06-26T04:20:06;4.32;;;3.58;;
44214;SDS011;29884;47.450;19.124;2023-06-26T04:22:33;5.22;;;3.42;;
44214;SDS011;29884;47.450;19.124;2023-06-26T04:25:00;5.03;;;3.50;;
44214;SDS011;29884;47.450;19.124;2023-06-26T04:27:27;4.88;;;3.35;;
44214;SDS011;29884;47.450;19.124;2023-06-26T04:29:53;4.10;;;3.20;;
44214;SDS011;29884;47.450;19.124;2023-06-26T04:32:19;5.70;;;3.53;;
44214;SDS011;29884;47.450;19.124;2023-06-26T04:34:44;5.40;;;3.80;;
44214;SDS011;29884;47.450;19.124;2023-06-26T04:37:10;6.82;;;3.90;;
44214;SDS011;29884;47.450;19.124;2023-06-26T04:39:36;3.90;;;3.20;;
44214;SDS011;29884;47.450;19.124;2023-06-26T04:42:03;7.28;;;3.42;;
44214;SDS011;29884;47.450;19.124;2023-06-26T04:44:29;5.50;;;3.28;;
44214;SDS011;29884;47.450;19.124;2023-06-26T04:46:55;5.32;;;3.42;;
44214;SDS011;29884;47.450;19.124;2023-06-26T04:49:20;4.10;;;3.38;;
44214;SDS011;29884;47.450;19.124;2023-06-26T04:51:47;4.57;;;3.50;;
44214;SDS011;29884;47.450;19.124;2023-06-26T04:54:13;4.57;;;3.50;;
44214;SDS011;29884;47.450;19.124;2023-06-26T04:56:39;5.10;;;3.72;;
44214;SDS011;29884;47.450;19.124;2023-06-26T04:59:05;3.75;;;2.90;;
44214;SDS011;29884;47.450;19.124;2023-06-26T05:01:31;5.35;;;3.40;;
44214;SDS011;29884;47.450;19.124;2023-06-26T05:03:57;3.70;;;3.10;;
44214;SDS011;29884;47.450;19.124;2023-06-26T05:06:23;6.20;;;3.65;;
44214;SDS011;29884;47.450;19.124;2023-06-26T05:08:49;4.05;;;3.22;;
44214;SDS011;29884;47.450;19.124;2023-06-26T05:11:15;4.40;;;3.78;;
44214;SDS011;29884;47.450;19.124;2023-06-26T05:13:41;4.75;;;3.63;;
44214;SDS011;29884;47.450;19.124;2023-06-26T05:16:07;6.25;;;3.13;;
44214;SDS011;29884;47.450;19.124;2023-06-26T05:18:34;6.45;;;3.65;;
44214;SDS011;29884;47.450;19.124;2023-06-26T05:21:01;5.30;;;3.70;;
44214;SDS011;29884;47.450;19.124;2023-06-26T05:23:27;5.40;;;3.55;;
44214;SDS011;29884;47.450;19.124;2023-06-26T05:25:56;5.28;;;3.38;;
44214;SDS011;29884;47.450;19.124;2023-06-26T05:28:25;4.80;;;3.60;;
44214;SDS011;29884;47.450;19.124;2023-06-26T05:30:53;4.55;;;3.28;;
44214;SDS011;29884;47.450;19.124;2023-06-26T05:33:20;5.93;;;3.22;;
44214;SDS011;29884;47.450;19.124;2023-06-26T05:35:48;6.15;;;3.78;;
44214;SDS011;29884;47.450;19.124;2023-06-26T05:38:16;4.13;;;3.40;;
44214;SDS011;29884;47.450;19.124;2023-06-26T05:40:42;4.97;;;3.38;;
44214;SDS011;29884;47.450;19.124;2023-06-26T05:43:08;6.68;;;3.03;;
44214;SDS011;29884;47.450;19.124;2023-06-26T05:45:34;5.43;;;3.35;;
44214;SDS011;29884;47.450;19.124;2023-06-26T05:48:00;5.72;;;3.40;;
44214;SDS011;29884;47.450;19.124;2023-06-26T05:50:26;4.35;;;3.20;;
44214;SDS011;29884;47.450;19.124;2023-06-26T05:52:53;5.07;;;3.28;;
44214;SDS011;29884;47.450;19.124;2023-06-26T05:55:19;4.25;;;3.10;;
44214;SDS011;29884;47.450;19.124;2023-06-26T05:57:45;5.72;;;3.10;;
44214;SDS011;29884;47.450;19.124;2023-06-26T06:00:11;4.55;;;3.15;;
44214;SDS011;29884;47.450;19.124;2023-06-26T06:02:38;6.82;;;2.92;;
44214;SDS011;29884;47.450;19.124;2023-06-26T06:05:04;5.90;;;3.10;;
44214;SDS011;29884;47.450;19.124;2023-06-26T06:07:31;3.78;;;2.53;;
44214;SDS011;29884;47.450;19.124;2023-06-26T06:09:58;5.63;;;3.10;;
44214;SDS011;29884;47.450;19.124;2023-06-26T06:12:24;5.88;;;3.53;;
44214;SDS011;29884;47.450;19.124;2023-06-26T06:14:50;3.65;;;3.08;;
44214;SDS011;29884;47.450;19.124;2023-06-26T06:17:17;6.18;;;2.95;;
44214;SDS011;29884;47.450;19.124;2023-06-26T06:19:42;5.78;;;3.30;;
44214;SDS011;29884;47.450;19.124;2023-06-26T06:22:08;5.18;;;2.95;;
44214;SDS011;29884;47.450;19.124;2023-06-26T06:24:34;5.35;;;3.17;;
44214;SDS011;29884;47.450;19.124;2023-06-26T06:27:00;7.65;;;2.70;;
44214;SDS011;29884;47.450;19.124;2023-06-26T06:29:25;4.40;;;3.10;;
44214;SDS011;29884;47.450;19.124;2023-06-26T06:31:51;3.88;;;2.92;;
44214;SDS011;29884;47.450;19.124;2023-06-26T06:34:17;6.90;;;2.38;;
44214;SDS011;29884;47.450;19.124;2023-06-26T06:36:42;3.58;;;2.80;;
44214;SDS011;29884;47.450;19.124;2023-06-26T06:39:08;4.30;;;2.50;;
44214;SDS011;29884;47.450;19.124;2023-06-26T06:41:34;4.50;;;2.70;;
44214;SDS011;29884;47.450;19.124;2023-06-26T06:43:59;4.70;;;2.33;;
44214;SDS011;29884;47.450;19.124;2023-06-26T06:46:25;5.85;;;2.88;;
44214;SDS011;29884;47.450;19.124;2023-06-26T06:48:52;4.68;;;2.97;;
44214;SDS011;29884;47.450;19.124;2023-06-26T06:51:18;4.55;;;2.40;;
44214;SDS011;29884;47.450;19.124;2023-06-26T06:53:44;3.63;;;2.00;;
44214;SDS011;29884;47.450;19.124;2023-06-26T06:56:09;3.85;;;2.40;;
44214;SDS011;29884;47.450;19.124;2023-06-26T06:58:35;5.53;;;2.08;;
44214;SDS011;29884;47.450;19.124;2023-06-26T07:01:01;3.50;;;2.10;;
44214;SDS011;29884;47.450;19.124;2023-06-26T07:03:29;3.53;;;2.53;;
44214;SDS011;29884;47.450;19.124;2023-06-26T07:05:55;5.38;;;2.42;;
44214;SDS011;29884;47.450;19.124;2023-06-26T07:08:21;2.83;;;2.00;;
44214;SDS011;29884;47.450;19.124;2023-06-26T07:10:47;4.57;;;2.25;;
44214;SDS011;29884;47.450;19.124;2023-06-26T07:13:12;2.60;;;2.10;;
44214;SDS011;29884;47.450;19.124;2023-06-26T07:15:38;4.47;;;2.45;;
44214;SDS011;29884;47.450;19.124;2023-06-26T07:18:04;3.42;;;2.55;;
44214;SDS011;29884;47.450;19.124;2023-06-26T07:20:30;3.03;;;2.08;;
44214;SDS011;29884;47.450;19.124;2023-06-26T07:22:55;6.32;;;2.35;;
44214;SDS011;29884;47.450;19.124;2023-06-26T07:25:21;3.03;;;1.98;;
44214;SDS011;29884;47.450;19.124;2023-06-26T07:27:47;4.05;;;2.10;;
44214;SDS011;29884;47.450;19.124;2023-06-26T07:30:13;8.80;;;2.10;;
44214;SDS011;29884;47.450;19.124;2023-06-26T07:32:38;3.58;;;2.00;;
44214;SDS011;29884;47.450;19.124;2023-06-26T07:35:07;3.20;;;2.20;;
44214;SDS011;29884;47.450;19.124;2023-06-26T07:37:33;4.28;;;1.90;;
44214;SDS011;29884;47.450;19.124;2023-06-26T07:39:59;3.20;;;2.30;;
44214;SDS011;29884;47.450;19.124;2023-06-26T07:42:25;3.10;;;2.10;;
44214;SDS011;29884;47.450;19.124;2023-06-26T07:44:50;3.15;;;2.30;;
44214;SDS011;29884;47.450;19.124;2023-06-26T07:47:16;4.95;;;2.08;;
44214;SDS011;29884;47.450;19.124;2023-06-26T07:49:42;3.22;;;2.25;;
44214;SDS011;29884;47.450;19.124;2023-06-26T07:52:08;3.10;;;1.92;;
44214;SDS011;29884;47.450;19.124;2023-06-26T07:54:37;2.70;;;2.08;;
44214;SDS011;29884;47.450;19.124;2023-06-26T07:57:03;4.13;;;1.90;;
44214;SDS011;29884;47.450;19.124;2023-06-26T07:59:32;3.10;;;2.28;;
44214;SDS011;29884;47.450;19.124;2023-06-26T08:01:58;3.88;;;1.83;;
44214;SDS011;29884;47.450;19.124;2023-06-26T08:04:27;3.85;;;2.25;;
44214;SDS011;29884;47.450;19.124;2023-06-26T08:06:57;2.75;;;1.92;;
44214;SDS011;29884;47.450;19.124;2023-06-26T08:09:25;3.97;;;2.00;;
44214;SDS011;29884;47.450;19.124;2023-06-26T08:11:52;2.60;;;2.00;;
44214;SDS011;29884;47.450;19.124;2023-06-26T08:14:18;2.83;;;1.92;;
44214;SDS011;29884;47.450;19.124;2023-06-26T08:16:44;2.75;;;1.90;;
44214;SDS011;29884;47.450;19.124;2023-06-26T08:19:11;2.70;;;1.85;;
44214;SDS011;29884;47.450;19.124;2023-06-26T08:21:37;4.72;;;2.10;;
44214;SDS011;29884;47.450;19.124;2023-06-26T08:24:03;3.22;;;1.90;;
44214;SDS011;29884;47.450;19.124;2023-06-26T08:26:28;2.67;;;2.10;;
44214;SDS011;29884;47.450;19.124;2023-06-26T08:28:54;3.45;;;2.20;;
44214;SDS011;29884;47.450;19.124;2023-06-26T08:31:20;3.28;;;2.28;;
44214;SDS011;29884;47.450;19.124;2023-06-26T08:33:46;5.03;;;2.30;;
44214;SDS011;29884;47.450;19.124;2023-06-26T08:36:12;4.63;;;2.00;;
44214;SDS011;29884;47.450;19.124;2023-06-26T08:38:38;3.65;;;2.08;;
44214;SDS011;29884;47.450;19.124;2023-06-26T08:41:07;3.20;;;2.00;;
44214;SDS011;29884;47.450;19.124;2023-06-26T08:43:33;2.88;;;2.03;;
44214;SDS011;29884;47.450;19.124;2023-06-26T08:45:59;2.50;;;1.75;;
44214;SDS011;29884;47.450;19.124;2023-06-26T08:48:25;3.53;;;2.28;;
44214;SDS011;29884;47.450;19.124;2023-06-26T08:50:54;4.10;;;2.35;;
44214;SDS011;29884;47.450;19.124;2023-06-26T08:56:20;3.42;;;2.38;;
44214;SDS011;29884;47.450;19.124;2023-06-26T08:58:48;2.65;;;1.85;;
44214;SDS011;29884;47.450;19.124;2023-06-26T09:01:14;3.83;;;2.38;;
44214;SDS011;29884;47.450;19.124;2023-06-26T09:03:40;2.95;;;2.20;;
44214;SDS011;29884;47.450;19.124;2023-06-26T09:06:09;2.78;;;2.28;;
44214;SDS011;29884;47.450;19.124;2023-06-26T09:08:35;4.75;;;2.10;;
44214;SDS011;29884;47.450;19.124;2023-06-26T09:11:01;3.63;;;2.40;;
44214;SDS011;29884;47.450;19.124;2023-06-26T09:13:30;3.15;;;2.22;;
44214;SDS011;29884;47.450;19.124;2023-06-26T09:15:56;3.45;;;2.40;;
44214;SDS011;29884;47.450;19.124;2023-06-26T09:18:22;4.90;;;1.98;;
44214;SDS011;29884;47.450;19.124;2023-06-26T09:20:48;2.72;;;2.28;;
44214;SDS011;29884;47.450;19.124;2023-06-26T09:23:15;2.90;;;2.15;;
44214;SDS011;29884;47.450;19.124;2023-06-26T09:25:41;2.72;;;2.38;;
44214;SDS011;29884;47.450;19.124;2023-06-26T09:28:07;2.97;;;1.90;;
44214;SDS011;29884;47.450;19.124;2023-06-26T09:30:33;4.15;;;2.40;;
44214;SDS011;29884;47.450;19.124;2023-06-26T09:33:13;3.63;;;2.28;;
44214;SDS011;29884;47.450;19.124;2023-06-26T09:35:39;4.93;;;2.30;;
44214;SDS011;29884;47.450;19.124;2023-06-26T09:38:05;4.28;;;2.22;;
44214;SDS011;29884;47.450;19.124;2023-06-26T09:40:31;3.75;;;2.00;;
44214;SDS011;29884;47.450;19.124;2023-06-26T09:43:03;4.18;;;2.10;;
44214;SDS011;29884;47.450;19.124;2023-06-26T09:45:30;3.05;;;2.15;;
44214;SDS011;29884;47.450;19.124;2023-06-26T09:48:00;3.80;;;2.30;;
44214;SDS011;29884;47.450;19.124;2023-06-26T09:50:30;4.30;;;2.30;;
44214;SDS011;29884;47.450;19.124;2023-06-26T09:53:03;4.15;;;1.83;;
44214;SDS011;29884;47.450;19.124;2023-06-26T09:55:36;3.92;;;2.05;;
44214;SDS011;29884;47.450;19.124;2023-06-26T09:58:02;3.75;;;2.20;;
44214;SDS011;29884;47.450;19.124;2023-06-26T10:00:32;2.70;;;2.10;;
44214;SDS011;29884;47.450;19.124;2023-06-26T10:02:58;3.05;;;2.20;;
44214;SDS011;29884;47.450;19.124;2023-06-26T10:05:24;3.35;;;2.17;;
44214;SDS011;29884;47.450;19.124;2023-06-26T10:07:50;3.15;;;2.10;;
44214;SDS011;29884;47.450;19.124;2023-06-26T10:10:18;4.03;;;2.10;;
44214;SDS011;29884;47.450;19.124;2023-06-26T10:12:46;2.40;;;1.73;;
44214;SDS011;29884;47.450;19.124;2023-06-26T10:15:14;4.20;;;2.17;;
44214;SDS011;29884;47.450;19.124;2023-06-26T10:17:42;3.53;;;2.47;;
44214;SDS011;29884;47.450;19.124;2023-06-26T10:20:11;4.03;;;2.40;;
44214;SDS011;29884;47.450;19.124;2023-06-26T10:22:41;3.97;;;2.30;;
44214;SDS011;29884;47.450;19.124;2023-06-26T10:25:09;3.67;;;2.50;;
44214;SDS011;29884;47.450;19.124;2023-06-26T10:27:38;2.58;;;2.05;;
44214;SDS011;29884;47.450;19.124;2023-06-26T10:30:09;3.20;;;2.03;;
44214;SDS011;29884;47.450;19.124;2023-06-26T10:32:41;5.00;;;2.53;;
44214;SDS011;29884;47.450;19.124;2023-06-26T10:35:08;3.97;;;2.28;;
44214;SDS011;29884;47.450;19.124;2023-06-26T10:37:43;3.10;;;2.30;;
44214;SDS011;29884;47.450;19.124;2023-06-26T10:40:10;3.13;;;2.25;;
44214;SDS011;29884;47.450;19.124;2023-06-26T10:42:36;6.85;;;2.60;;
44214;SDS011;29884;47.450;19.124;2023-06-26T10:45:09;4.15;;;2.25;;
44214;SDS011;29884;47.450;19.124;2023-06-26T10:47:39;3.15;;;2.33;;
44214;SDS011;29884;47.450;19.124;2023-06-26T10:53:07;2.72;;;2.17;;
44214;SDS011;29884;47.450;19.124;2023-06-26T10:55:34;3.65;;;1.92;;
44214;SDS011;29884;47.450;19.124;2023-06-26T10:58:00;3.85;;;1.95;;
44214;SDS011;29884;47.450;19.124;2023-06-26T11:00:29;3.33;;;1.88;;
44214;SDS011;29884;47.450;19.124;2023-06-26T11:02:55;3.10;;;2.42;;
44214;SDS011;29884;47.450;19.124;2023-06-26T11:05:24;2.60;;;2.17;;
44214;SDS011;29884;47.450;19.124;2023-06-26T11:08:07;2.97;;;1.92;;
44214;SDS011;29884;47.450;19.124;2023-06-26T11:10:53;4.07;;;2.10;;
44214;SDS011;29884;47.450;19.124;2023-06-26T11:13:25;3.75;;;2.40;;
44214;SDS011;29884;47.450;19.124;2023-06-26T11:15:51;4.38;;;2.30;;
44214;SDS011;29884;47.450;19.124;2023-06-26T11:18:17;2.75;;;2.08;;
44214;SDS011;29884;47.450;19.124;2023-06-26T11:20:43;3.63;;;2.10;;
44214;SDS011;29884;47.450;19.124;2023-06-26T11:23:09;3.47;;;2.40;;
44214;SDS011;29884;47.450;19.124;2023-06-26T11:25:36;2.50;;;1.73;;
44214;SDS011;29884;47.450;19.124;2023-06-26T11:28:03;2.65;;;2.08;;
44214;SDS011;29884;47.450;19.124;2023-06-26T11:30:34;2.55;;;2.05;;
44214;SDS011;29884;47.450;19.124;2023-06-26T11:33:06;2.75;;;2.08;;
44214;SDS011;29884;47.450;19.124;2023-06-26T11:35:33;2.67;;;2.13;;
44214;SDS011;29884;47.450;19.124;2023-06-26T11:38:01;3.03;;;2.10;;
44214;SDS011;29884;47.450;19.124;2023-06-26T11:40:34;3.42;;;1.98;;
44214;SDS011;29884;47.450;19.124;2023-06-26T11:43:01;2.95;;;1.92;;
44214;SDS011;29884;47.450;19.124;2023-06-26T11:45:28;3.22;;;2.08;;
44214;SDS011;29884;47.450;19.124;2023-06-26T11:47:58;3.42;;;2.50;;
44214;SDS011;29884;47.450;19.124;2023-06-26T11:50:25;3.35;;;1.77;;
44214;SDS011;29884;47.450;19.124;2023-06-26T11:52:54;3.72;;;2.53;;
44214;SDS011;29884;47.450;19.124;2023-06-26T11:55:21;4.05;;;2.30;;
44214;SDS011;29884;47.450;19.124;2023-06-26T11:57:54;2.88;;;2.00;;
44214;SDS011;29884;47.450;19.124;2023-06-26T12:00:20;3.55;;;2.15;;
44214;SDS011;29884;47.450;19.124;2023-06-26T12:02:46;4.40;;;2.40;;
44214;SDS011;29884;47.450;19.124;2023-06-26T12:05:13;2.80;;;2.17;;
44214;SDS011;29884;47.450;19.124;2023-06-26T12:07:43;3.38;;;2.35;;
44214;SDS011;29884;47.450;19.124;2023-06-26T12:10:11;3.20;;;1.88;;
44214;SDS011;29884;47.450;19.124;2023-06-26T12:12:37;2.72;;;2.00;;
44214;SDS011;29884;47.450;19.124;2023-06-26T12:15:04;2.55;;;1.90;;
44214;SDS011;29884;47.450;19.124;2023-06-26T12:17:31;2.65;;;2.13;;
44214;SDS011;29884;47.450;19.124;2023-06-26T12:19:57;3.15;;;2.15;;
44214;SDS011;29884;47.450;19.124;2023-06-26T12:22:23;3.65;;;2.30;;
44214;SDS011;29884;47.450;19.124;2023-06-26T12:24:49;4.53;;;2.35;;
44214;SDS011;29884;47.450;19.124;2023-06-26T12:27:15;3.35;;;1.75;;
44214;SDS011;29884;47.450;19.124;2023-06-26T12:30:02;3.53;;;1.88;;
44214;SDS011;29884;47.450;19.124;2023-06-26T12:32:29;2.55;;;2.00;;
44214;SDS011;29884;47.450;19.124;2023-06-26T12:34:56;4.60;;;2.40;;
44214;SDS011;29884;47.450;19.124;2023-06-26T12:37:22;3.22;;;1.88;;
44214;SDS011;29884;47.450;19.124;2023-06-26T12:39:48;2.40;;;1.98;;
44214;SDS011;29884;47.450;19.124;2023-06-26T12:44:45;6.22;;;2.00;;
44214;SDS011;29884;47.450;19.124;2023-06-26T12:47:12;3.33;;;2.08;;
44214;SDS011;29884;47.450;19.124;2023-06-26T12:49:40;3.90;;;1.92;;
44214;SDS011;29884;47.450;19.124;2023-06-26T12:52:11;3.15;;;1.85;;
44214;SDS011;29884;47.450;19.124;2023-06-26T12:54:41;3.60;;;2.10;;
44214;SDS011;29884;47.450;19.124;2023-06-26T12:57:08;3.45;;;2.30;;
44214;SDS011;29884;47.450;19.124;2023-06-26T12:59:35;4.35;;;1.88;;
44214;SDS011;29884;47.450;19.124;2023-06-26T13:02:02;3.22;;;1.92;;
44214;SDS011;29884;47.450;19.124;2023-06-26T13:04:28;3.13;;;1.90;;
44214;SDS011;29884;47.450;19.124;2023-06-26T13:06:55;2.58;;;2.10;;
44214;SDS011;29884;47.450;19.124;2023-06-26T13:09:24;9.95;;;2.15;;
44214;SDS011;29884;47.450;19.124;2023-06-26T13:11:53;3.63;;;1.90;;
44214;SDS011;29884;47.450;19.124;2023-06-26T13:14:19;2.20;;;1.73;;
44214;SDS011;29884;47.450;19.124;2023-06-26T13:16:44;3.08;;;1.92;;
44214;SDS011;29884;47.450;19.124;2023-06-26T13:19:12;3.05;;;1.92;;
44214;SDS011;29884;47.450;19.124;2023-06-26T13:21:37;3.17;;;2.00;;
44214;SDS011;29884;47.450;19.124;2023-06-26T13:24:03;3.63;;;1.85;;
44214;SDS011;29884;47.450;19.124;2023-06-26T13:26:30;2.28;;;1.75;;
44214;SDS011;29884;47.450;19.124;2023-06-26T13:28:57;3.22;;;1.77;;
44214;SDS011;29884;47.450;19.124;2023-06-26T13:31:23;3.08;;;1.95;;
44214;SDS011;29884;47.450;19.124;2023-06-26T13:33:49;2.35;;;1.95;;
44214;SDS011;29884;47.450;19.124;2023-06-26T13:36:15;2.38;;;1.55;;
44214;SDS011;29884;47.450;19.124;2023-06-26T13:38:41;4.30;;;2.17;;
44214;SDS011;29884;47.450;19.124;2023-06-26T13:41:07;3.40;;;1.95;;
44214;SDS011;29884;47.450;19.124;2023-06-26T13:43:33;2.10;;;1.80;;
44214;SDS011;29884;47.450;19.124;2023-06-26T13:45:58;4.03;;;2.05;;
44214;SDS011;29884;47.450;19.124;2023-06-26T13:48:25;4.03;;;1.67;;
44214;SDS011;29884;47.450;19.124;2023-06-26T13:50:51;5.13;;;2.10;;
44214;SDS011;29884;47.450;19.124;2023-06-26T13:53:17;3.10;;;2.47;;
44214;SDS011;29884;47.450;19.124;2023-06-26T13:55:43;2.90;;;2.13;;
44214;SDS011;29884;47.450;19.124;2023-06-26T13:58:09;3.67;;;2.00;;
44214;SDS011;29884;47.450;19.124;2023-06-26T14:00:36;2.55;;;2.08;;
44214;SDS011;29884;47.450;19.124;2023-06-26T14:03:06;2.00;;;1.70;;
44214;SDS011;29884;47.450;19.124;2023-06-26T14:05:32;4.07;;;2.25;;
44214;SDS011;29884;47.450;19.124;2023-06-26T14:07:58;3.28;;;2.00;;
44214;SDS011;29884;47.450;19.124;2023-06-26T14:10:24;2.78;;;1.75;;
44214;SDS011;29884;47.450;19.124;2023-06-26T14:12:50;2.40;;;2.03;;
44214;SDS011;29884;47.450;19.124;2023-06-26T14:15:16;3.28;;;1.85;;
44214;SDS011;29884;47.450;19.124;2023-06-26T14:17:42;2.35;;;1.75;;
44214;SDS011;29884;47.450;19.124;2023-06-26T14:20:08;3.55;;;2.30;;
44214;SDS011;29884;47.450;19.124;2023-06-26T14:22:37;4.68;;;2.13;;
44214;SDS011;29884;47.450;19.124;2023-06-26T14:25:07;2.35;;;1.77;;
44214;SDS011;29884;47.450;19.124;2023-06-26T14:27:33;2.65;;;1.98;;
44214;SDS011;29884;47.450;19.124;2023-06-26T14:29:59;3.05;;;1.92;;
44214;SDS011;29884;47.450;19.124;2023-06-26T14:32:24;2.50;;;1.85;;
44214;SDS011;29884;47.450;19.124;2023-06-26T14:34:50;2.63;;;1.80;;
44214;SDS011;29884;47.450;19.124;2023-06-26T14:37:16;2.97;;;2.08;;
44214;SDS011;29884;47.450;19.124;2023-06-26T14:39:43;2.75;;;1.92;;
44214;SDS011;29884;47.450;19.124;2023-06-26T14:42:09;3.95;;;1.80;;
44214;SDS011;29884;47.450;19.124;2023-06-26T14:44:35;4.28;;;1.88;;